createdAt,value
2022-08-03T00:01:30.183Z,91.19
2022-08-03T00:06:36.967Z,91.09
2022-08-03T00:11:41.443Z,91.58
2022-08-03T00:16:45.251Z,91.45
2022-08-03T00:21:49.024Z,91.77
2022-08-03T00:26:53.015Z,92.51
2022-08-03T00:31:59.580Z,92.91
2022-08-03T00:37:04.296Z,93.72
2022-08-03T00:42:08.391Z,94.54
2022-08-03T00:47:11.641Z,94.57
2022-08-03T00:52:15.260Z,95.24
2022-08-03T00:57:18.964Z,96.93
2022-08-03T01:02:23.024Z,96.04
2022-08-03T01:07:26.823Z,96.72
2022-08-03T01:12:31.279Z,96.77
2022-08-03T01:17:35.913Z,97.64
2022-08-03T01:22:51.491Z,97.44
2022-08-03T01:27:58.630Z,98.07
2022-08-03T01:33:03.556Z,98.51
2022-08-03T01:38:14.403Z,98.88
2022-08-03T01:43:55.349Z,98.83
2022-08-03T01:48:57.119Z,98.42
2022-08-03T01:54:00.954Z,97.75
2022-08-03T01:59:04.271Z,97.00
2022-08-03T02:04:07.886Z,97.25
2022-08-03T02:09:12.323Z,96.57
2022-08-03T02:14:15.663Z,97.04
2022-08-03T02:19:20.018Z,97.27
2022-08-03T02:24:23.400Z,97.51
2022-08-03T02:29:39.887Z,97.53
2022-08-03T02:34:44.187Z,96.58
2022-08-03T02:39:47.396Z,97.27
2022-08-03T02:44:50.954Z,97.81
2022-08-03T02:49:54.306Z,97.65
2022-08-03T02:54:58.538Z,98.64
2022-08-03T03:00:01.819Z,99.26
2022-08-03T03:05:54.546Z,99.94
2022-08-03T03:10:29.726Z,100.00
2022-08-03T03:15:35.821Z,100.00
2022-08-03T03:20:39.125Z,100.00
2022-08-03T03:25:42.451Z,100.00
2022-08-03T03:30:52.904Z,100.00
2022-08-03T03:35:57.364Z,100.00
2022-08-03T03:41:01.371Z,100.00
2022-08-03T03:46:05.123Z,100.00
2022-08-03T03:51:08.777Z,100.00
2022-08-03T03:56:11.988Z,100.00
2022-08-03T04:01:15.406Z,100.00
2022-08-03T04:06:36.774Z,100.00
2022-08-03T04:11:40.383Z,100.00
2022-08-03T04:17:00.494Z,99.38
2022-08-03T04:22:04.260Z,97.56
2022-08-03T04:27:08.788Z,95.21
2022-08-03T04:32:13.017Z,92.57
2022-08-03T04:37:16.463Z,91.08
2022-08-03T04:42:20.486Z,89.05
2022-08-03T04:47:23.906Z,87.30
2022-08-03T04:52:27.930Z,85.69
2022-08-03T04:57:31.946Z,83.91
2022-08-03T05:02:35.558Z,81.44
2022-08-03T05:07:38.893Z,79.78
2022-08-03T05:12:42.247Z,77.34
2022-08-03T05:17:45.837Z,74.34
2022-08-03T05:22:49.646Z,72.34
2022-08-03T05:27:53.191Z,71.09
2022-08-03T05:32:56.883Z,69.76
2022-08-03T05:38:00.700Z,67.84
2022-08-03T05:43:03.964Z,66.06
2022-08-03T05:48:07.113Z,65.25
2022-08-03T05:53:10.663Z,62.43
2022-08-03T05:58:14.863Z,62.12
2022-08-03T06:03:18.651Z,60.41
2022-08-03T06:08:24.798Z,58.62
2022-08-03T06:13:29.293Z,57.49
2022-08-03T06:18:33.670Z,58.08
2022-08-03T06:23:53.962Z,57.27
2022-08-03T06:28:59.287Z,55.06
2022-08-03T06:34:32.770Z,54.47
2022-08-03T06:39:28.719Z,53.86
2022-08-03T06:44:33.138Z,54.67
2022-08-03T06:49:37.889Z,55.41
2022-08-03T06:54:41.760Z,54.39
2022-08-03T07:00:10.939Z,52.63
2022-08-03T07:05:08.746Z,54.22
2022-08-03T07:10:13.170Z,53.09
2022-08-03T07:15:20.167Z,51.65
2022-08-03T07:20:41.935Z,51.50
2022-08-03T07:25:45.654Z,52.29
2022-08-03T07:30:49.674Z,52.67
2022-08-03T07:35:52.942Z,52.74
2022-08-03T07:40:56.688Z,51.64
2022-08-03T07:46:00.426Z,49.68
2022-08-03T07:51:06.315Z,48.18
2022-08-03T07:56:11.293Z,47.85
2022-08-03T08:01:15.625Z,48.84
2022-08-03T08:06:20.040Z,47.71
2022-08-03T08:11:23.422Z,48.50
2022-08-03T08:16:26.794Z,47.93
2022-08-03T08:21:54.073Z,47.26
2022-08-03T08:26:54.558Z,45.56
2022-08-03T08:31:58.222Z,44.37
2022-08-03T08:37:02.132Z,43.62
2022-08-03T08:42:05.397Z,43.31
2022-08-03T08:47:08.629Z,42.06
2022-08-03T08:52:25.153Z,43.33
2022-08-03T08:57:42.416Z,41.85
2022-08-03T09:02:46.346Z,41.70
2022-08-03T09:07:49.581Z,41.44
2022-08-03T09:12:52.831Z,39.43
2022-08-03T09:17:56.332Z,38.70
2022-08-03T09:23:00.103Z,40.22
2022-08-03T09:28:03.531Z,37.08
2022-08-03T09:33:08.429Z,38.57
2022-08-03T09:38:14.183Z,36.09
2022-08-03T09:43:18.121Z,34.18
2022-08-03T09:48:21.811Z,33.99
2022-08-03T09:53:25.136Z,34.97
2022-08-03T09:58:28.386Z,34.12
2022-08-03T10:03:31.744Z,33.04
2022-08-03T10:08:35.117Z,33.02
2022-08-03T10:13:38.803Z,33.58
2022-08-03T10:18:42.387Z,33.89
2022-08-03T10:23:46.140Z,31.53
2022-08-03T10:28:49.422Z,32.01
2022-08-03T10:33:53.589Z,32.31
2022-08-03T10:38:57.532Z,32.43
2022-08-03T10:44:01.216Z,29.44
2022-08-03T10:49:05.008Z,29.53
2022-08-03T10:54:10.679Z,29.54
2022-08-03T10:59:27.928Z,27.58
2022-08-03T11:04:31.660Z,27.06
2022-08-03T11:09:35.776Z,26.61
2022-08-03T11:14:39.009Z,25.60
2022-08-03T11:19:57.503Z,25.06
2022-08-03T11:25:01.864Z,23.92
2022-08-03T11:30:05.367Z,24.10
2022-08-03T11:35:08.723Z,23.11
2022-08-03T11:40:12.517Z,24.96
2022-08-03T11:45:17.247Z,25.14
2022-08-03T11:50:21.598Z,26.13
2022-08-03T11:55:30.300Z,25.92
2022-08-03T12:00:33.984Z,26.03
2022-08-03T12:05:37.654Z,29.22
2022-08-03T12:10:42.716Z,26.88
2022-08-03T12:15:46.475Z,28.43
2022-08-03T12:20:50.334Z,27.05
2022-08-03T12:25:53.631Z,26.00
2022-08-03T12:30:58.820Z,26.35
2022-08-03T12:36:02.070Z,26.31
2022-08-03T12:41:05.776Z,26.46
2022-08-03T12:46:09.058Z,26.12
2022-08-03T12:51:12.504Z,28.87
2022-08-03T12:56:15.821Z,27.80
2022-08-03T13:01:19.332Z,27.56
2022-08-03T13:06:23.606Z,26.40
2022-08-03T13:11:50.532Z,24.14
2022-08-03T13:16:50.400Z,23.85
2022-08-03T13:22:03.899Z,25.67
2022-08-03T13:27:22.458Z,25.02
2022-08-03T13:32:31.875Z,27.18
2022-08-03T13:37:35.142Z,27.72
2022-08-03T13:42:38.921Z,27.87
2022-08-03T13:47:42.318Z,26.63
2022-08-03T13:52:46.739Z,26.36
2022-08-03T13:58:06.292Z,26.07
2022-08-03T14:03:14.922Z,26.45
2022-08-03T14:08:18.547Z,26.93
2022-08-03T14:13:22.974Z,26.47
2022-08-03T14:18:27.605Z,26.90
2022-08-03T14:23:38.052Z,27.33
2022-08-03T14:28:41.479Z,26.83
2022-08-03T14:33:45.204Z,26.79
2022-08-03T14:38:49.077Z,26.95
2022-08-03T14:44:00.615Z,26.99
2022-08-03T14:50:37.795Z,26.88
2022-08-03T14:54:31.997Z,25.50
2022-08-03T14:59:55.776Z,25.77
2022-08-03T15:04:59.818Z,25.34
2022-08-03T15:10:03.464Z,25.56
2022-08-03T15:15:06.789Z,25.71
2022-08-03T15:20:27.760Z,26.08
2022-08-03T15:26:28.507Z,25.29
2022-08-03T15:30:57.427Z,25.04
2022-08-03T15:36:01.204Z,25.75
2022-08-03T15:41:04.834Z,26.13
2022-08-03T15:46:28.739Z,25.98
2022-08-03T15:51:32.678Z,25.89
2022-08-03T15:56:35.931Z,25.22
2022-08-03T16:01:39.683Z,26.09
2022-08-03T16:06:44.141Z,26.95
2022-08-03T16:11:48.067Z,27.43
2022-08-03T16:16:53.307Z,26.63
2022-08-03T16:21:56.944Z,26.65
2022-08-03T16:27:01.152Z,27.35
2022-08-03T16:32:09.403Z,28.23
2022-08-03T16:37:37.133Z,28.51
2022-08-03T16:42:36.308Z,28.94
2022-08-03T16:47:40.355Z,28.75
2022-08-03T16:52:47.531Z,28.60
2022-08-03T16:57:59.264Z,28.94
2022-08-03T17:03:04.343Z,29.36
2022-08-03T17:08:09.029Z,29.78
2022-08-03T17:13:22.504Z,29.74
2022-08-03T17:18:27.008Z,30.02
2022-08-03T17:23:35.556Z,30.44
2022-08-03T17:28:49.150Z,30.77
2022-08-03T17:33:56.557Z,31.28
2022-08-03T17:39:00.264Z,31.65
2022-08-03T17:44:15.948Z,31.59
2022-08-03T17:49:29.104Z,32.27
2022-08-03T17:54:34.999Z,32.56
2022-08-03T17:59:58.737Z,32.66
2022-08-03T18:05:17.214Z,33.09
2022-08-03T18:10:21.676Z,33.34
2022-08-03T18:15:25.111Z,33.43
2022-08-03T18:20:34.220Z,34.32
2022-08-03T18:25:50.064Z,34.16
2022-08-03T18:30:57.764Z,34.87
2022-08-03T18:36:00.997Z,35.65
2022-08-03T18:41:12.706Z,36.34
2022-08-03T18:46:20.804Z,36.50
2022-08-03T18:51:33.871Z,37.36
2022-08-03T18:56:39.063Z,37.60
2022-08-03T19:01:57.871Z,38.33
2022-08-03T19:07:07.972Z,38.97
2022-08-03T19:12:26.585Z,39.26
2022-08-03T19:17:35.091Z,39.12
2022-08-03T19:22:39.653Z,39.94
2022-08-03T19:27:49.159Z,40.01
2022-08-03T19:32:53.398Z,40.57
2022-08-03T19:37:57.118Z,40.96
2022-08-03T19:43:04.555Z,41.96
2022-08-03T19:48:10.107Z,42.61
2022-08-03T19:53:13.418Z,42.87
2022-08-03T19:58:20.283Z,43.38
2022-08-03T20:03:42.946Z,43.71
2022-08-03T20:08:48.226Z,44.26
2022-08-03T20:13:55.476Z,44.89
2022-08-03T20:18:59.585Z,45.68
2022-08-03T20:24:24.449Z,46.35
2022-08-03T20:34:53.328Z,47.27
2022-08-03T20:39:57.281Z,47.60
2022-08-03T20:45:05.564Z,48.29
2022-08-03T20:50:10.163Z,48.63
2022-08-03T20:55:14.798Z,48.87
2022-08-03T21:00:21.860Z,49.32
2022-08-03T21:05:47.663Z,49.77
2022-08-03T21:10:50.603Z,50.47
2022-08-03T21:13:12.389Z,46.71
2022-08-03T21:16:01.331Z,50.99
2022-08-03T21:21:18.112Z,50.67
2022-08-03T21:26:21.402Z,51.25
2022-08-03T21:31:26.569Z,51.50
2022-08-03T21:36:30.605Z,51.85
2022-08-03T21:41:33.895Z,52.49
2022-08-03T21:46:43.647Z,52.82
2022-08-03T21:51:48.148Z,53.64
2022-08-03T21:56:51.948Z,54.18
2022-08-03T22:01:58.587Z,54.50
2022-08-03T22:07:01.991Z,54.78
2022-08-03T22:12:06.347Z,55.65
2022-08-03T22:17:09.612Z,56.56
2022-08-03T22:22:14.666Z,57.74
2022-08-03T22:27:34.305Z,58.59
2022-08-03T22:32:38.065Z,59.23
2022-08-03T22:37:41.738Z,60.04
2022-08-03T22:42:46.173Z,60.66
2022-08-03T22:47:49.843Z,62.06
2022-08-03T22:52:53.899Z,62.40
2022-08-03T22:57:57.125Z,62.58
2022-08-03T23:03:01.060Z,63.42
2022-08-03T23:08:04.747Z,64.25
2022-08-03T23:13:08.061Z,64.58
2022-08-03T23:18:11.749Z,65.26
2022-08-03T23:23:15.391Z,66.17
2022-08-03T23:28:23.578Z,66.94
2022-08-03T23:33:27.226Z,67.71
2022-08-03T23:38:30.800Z,67.95
2022-08-03T23:43:52.347Z,69.22
2022-08-03T23:48:57.410Z,69.01
2022-08-03T23:54:02.310Z,70.48
2022-08-03T23:59:05.691Z,70.14
